createdAt,value
2019-01-24T00:00:07.303Z,66.74
2019-01-24T00:02:34.370Z,66.71
2019-01-24T00:05:01.440Z,66.70
2019-01-24T00:07:28.484Z,66.71
2019-01-24T00:09:55.519Z,66.33
2019-01-24T00:12:22.556Z,66.57
2019-01-24T00:14:49.610Z,66.66
2019-01-24T00:17:16.649Z,66.88
2019-01-24T00:19:43.730Z,66.67
2019-01-24T00:22:10.768Z,66.82
2019-01-24T00:24:37.801Z,66.89
2019-01-24T00:27:04.835Z,66.75
2019-01-24T00:29:31.870Z,66.60
2019-01-24T00:31:58.909Z,66.78
2019-01-24T00:34:25.967Z,66.85
2019-01-24T00:36:53.001Z,66.85
2019-01-24T00:39:20.035Z,67.22
2019-01-24T00:41:47.071Z,67.56
2019-01-24T00:44:14.109Z,67.46
2019-01-24T00:46:41.173Z,67.16
2019-01-24T00:49:08.207Z,67.33
2019-01-24T00:51:35.239Z,67.52
2019-01-24T00:54:02.255Z,67.44
2019-01-24T00:56:29.313Z,67.61
2019-01-24T00:58:56.349Z,67.73
2019-01-24T01:01:23.390Z,67.55
2019-01-24T01:03:50.443Z,67.39
2019-01-24T01:06:17.474Z,67.17
2019-01-24T01:08:44.519Z,67.40
2019-01-24T01:11:11.577Z,67.25
2019-01-24T01:13:38.599Z,67.62
2019-01-24T01:16:05.665Z,67.48
2019-01-24T01:18:32.710Z,67.44
2019-01-24T01:20:59.793Z,67.59
2019-01-24T01:23:26.858Z,67.40
2019-01-24T01:25:53.913Z,67.64
2019-01-24T01:28:20.945Z,67.79
2019-01-24T01:30:48.005Z,67.71
2019-01-24T01:33:15.062Z,67.58
2019-01-24T01:35:42.078Z,67.50
2019-01-24T01:38:09.113Z,67.69
2019-01-24T01:40:36.146Z,67.75
2019-01-24T01:43:03.310Z,67.61
2019-01-24T01:45:30.350Z,67.52
2019-01-24T01:47:57.414Z,67.28
2019-01-24T01:50:24.455Z,67.30
2019-01-24T01:52:51.545Z,67.23
2019-01-24T01:55:18.538Z,67.35
2019-01-24T01:57:45.698Z,67.41
2019-01-24T02:00:15.532Z,67.45
2019-01-24T02:02:42.553Z,67.70
2019-01-24T02:05:10.030Z,67.62
2019-01-24T02:07:37.073Z,67.67
2019-01-24T02:10:06.308Z,67.83
2019-01-24T02:12:33.340Z,67.86
2019-01-24T02:15:00.405Z,67.89
2019-01-24T02:17:27.457Z,68.04
2019-01-24T02:19:54.537Z,68.01
2019-01-24T02:22:21.584Z,68.00
2019-01-24T02:24:48.604Z,67.80
2019-01-24T02:27:15.650Z,68.09
2019-01-24T02:29:42.683Z,68.17
2019-01-24T02:32:09.714Z,68.13
2019-01-24T02:34:36.749Z,68.03
2019-01-24T02:37:03.786Z,68.21
2019-01-24T02:39:30.824Z,68.28
2019-01-24T02:41:57.873Z,67.96
2019-01-24T02:44:24.916Z,67.96
2019-01-24T02:46:51.963Z,68.25
2019-01-24T02:49:18.980Z,68.33
2019-01-24T02:51:46.008Z,68.21
2019-01-24T02:54:13.041Z,68.10
2019-01-24T02:56:40.065Z,68.20
2019-01-24T02:59:07.118Z,68.14
2019-01-24T03:01:34.163Z,68.08
2019-01-24T03:04:01.215Z,68.15
2019-01-24T03:06:28.259Z,68.04
2019-01-24T03:08:55.331Z,67.97
2019-01-24T03:11:22.355Z,67.86
2019-01-24T03:13:49.405Z,68.00
2019-01-24T03:16:16.445Z,68.03
2019-01-24T03:18:43.499Z,68.02
2019-01-24T03:21:10.558Z,67.87
2019-01-24T03:23:37.636Z,67.86
2019-01-24T03:26:04.695Z,67.92
2019-01-24T03:28:31.739Z,67.95
2019-01-24T03:30:58.789Z,67.86
2019-01-24T03:33:25.847Z,67.85
2019-01-24T03:35:52.882Z,68.10
2019-01-24T03:38:19.932Z,68.05
2019-01-24T03:40:46.979Z,67.94
2019-01-24T03:43:14.031Z,67.86
2019-01-24T03:45:41.066Z,67.91
2019-01-24T03:48:08.105Z,67.65
2019-01-24T03:50:35.131Z,67.61
2019-01-24T03:53:02.176Z,67.70
2019-01-24T03:55:29.240Z,67.74
2019-01-24T03:57:56.246Z,67.92
2019-01-24T04:00:23.959Z,67.92
2019-01-24T04:02:50.991Z,67.74
2019-01-24T04:05:18.265Z,68.26
2019-01-24T04:07:45.305Z,68.39
2019-01-24T04:10:16.435Z,68.28
2019-01-24T04:12:43.558Z,68.23
2019-01-24T04:15:12.348Z,68.24
2019-01-24T04:17:39.376Z,68.10
2019-01-24T04:20:06.755Z,67.94
2019-01-24T04:22:33.828Z,67.97
2019-01-24T04:25:00.865Z,68.10
2019-01-24T04:27:27.922Z,68.43
2019-01-24T04:29:54.967Z,68.52
2019-01-24T04:32:22.028Z,68.79
2019-01-24T04:34:49.090Z,68.84
2019-01-24T04:37:16.138Z,68.83
2019-01-24T04:39:43.165Z,68.81
2019-01-24T04:42:10.188Z,68.80
2019-01-24T04:44:37.214Z,68.74
2019-01-24T04:47:04.267Z,68.43
2019-01-24T04:49:31.332Z,68.65
2019-01-24T04:51:58.383Z,68.91
2019-01-24T04:54:25.483Z,68.92
2019-01-24T04:56:52.538Z,68.71
2019-01-24T04:59:19.607Z,68.55
2019-01-24T05:01:46.633Z,68.59
2019-01-24T05:04:13.683Z,68.44
2019-01-24T05:06:40.733Z,68.34
2019-01-24T05:09:07.768Z,68.30
2019-01-24T05:11:34.791Z,68.48
2019-01-24T05:14:01.845Z,68.73
2019-01-24T05:16:28.902Z,68.80
2019-01-24T05:18:55.936Z,68.79
2019-01-24T05:21:23.027Z,69.07
2019-01-24T05:23:50.048Z,69.12
2019-01-24T05:26:17.117Z,69.08
2019-01-24T05:28:44.149Z,68.95
2019-01-24T05:31:11.188Z,68.70
2019-01-24T05:33:38.243Z,68.72
2019-01-24T05:36:05.268Z,68.81
2019-01-24T05:38:32.538Z,68.85
2019-01-24T05:40:59.557Z,68.83
2019-01-24T05:43:26.629Z,68.80
2019-01-24T05:45:53.664Z,68.78
2019-01-24T05:48:20.726Z,68.72
2019-01-24T05:50:47.977Z,68.73
2019-01-24T05:53:15.089Z,68.67
2019-01-24T05:55:42.141Z,71.77
2019-01-24T05:58:09.188Z,75.72
2019-01-24T06:00:39.118Z,75.26
2019-01-24T06:03:06.181Z,73.90
2019-01-24T06:05:33.271Z,71.59
2019-01-24T06:08:00.313Z,69.33
2019-01-24T06:10:27.410Z,68.75
2019-01-24T06:12:54.450Z,67.18
2019-01-24T06:15:21.490Z,66.95
2019-01-24T06:17:48.534Z,66.40
2019-01-24T06:20:15.591Z,62.51
2019-01-24T06:22:42.594Z,61.26
2019-01-24T06:25:09.680Z,60.58
2019-01-24T06:27:36.729Z,61.51
2019-01-24T06:30:04.944Z,62.34
2019-01-24T06:32:31.981Z,62.88
2019-01-24T06:34:59.026Z,63.03
2019-01-24T06:37:26.099Z,63.70
2019-01-24T06:39:53.154Z,64.16
2019-01-24T06:42:20.256Z,64.34
2019-01-24T06:44:47.290Z,64.76
2019-01-24T06:47:14.356Z,65.28
2019-01-24T06:49:41.413Z,72.29
2019-01-24T06:52:08.468Z,73.88
2019-01-24T06:54:35.507Z,67.29
2019-01-24T06:57:02.547Z,66.63
2019-01-24T06:59:29.595Z,64.95
2019-01-24T07:01:56.611Z,62.21
2019-01-24T07:04:23.685Z,60.96
2019-01-24T07:06:50.712Z,61.89
2019-01-24T07:09:17.758Z,62.67
2019-01-24T07:11:44.795Z,63.65
2019-01-24T07:14:11.846Z,64.20
2019-01-24T07:16:38.887Z,64.69
2019-01-24T07:19:05.945Z,65.72
2019-01-24T07:21:33.047Z,65.72
2019-01-24T07:24:00.089Z,66.23
2019-01-24T07:26:27.145Z,66.38
2019-01-24T07:28:54.187Z,66.53
2019-01-24T07:31:21.245Z,66.41
2019-01-24T07:33:48.306Z,66.46
2019-01-24T07:36:15.364Z,66.62
2019-01-24T07:38:42.426Z,66.61
2019-01-24T07:41:09.451Z,66.60
2019-01-24T07:43:36.491Z,66.42
2019-01-24T07:46:03.865Z,66.37
2019-01-24T07:48:30.916Z,65.93
2019-01-24T07:50:57.955Z,66.28
2019-01-24T07:53:25.023Z,66.25
2019-01-24T07:55:52.063Z,66.08
2019-01-24T07:58:19.124Z,66.18
2019-01-24T08:00:46.167Z,66.21
2019-01-24T08:03:14.215Z,66.23
2019-01-24T08:05:41.301Z,65.56
2019-01-24T08:08:08.343Z,66.14
2019-01-24T08:10:35.426Z,66.60
2019-01-24T08:13:02.459Z,68.05
2019-01-24T08:15:29.523Z,67.42
2019-01-24T08:17:56.573Z,66.93
2019-01-24T08:20:24.749Z,66.44
2019-01-24T08:22:51.781Z,66.29
2019-01-24T08:25:18.813Z,67.50
2019-01-24T08:27:45.877Z,66.09
2019-01-24T08:30:17.864Z,65.81
2019-01-24T08:32:44.913Z,66.45
2019-01-24T08:35:11.958Z,68.27
2019-01-24T08:37:39.020Z,68.12
2019-01-24T08:40:07.168Z,68.36
2019-01-24T08:42:34.215Z,66.50
2019-01-24T08:45:01.268Z,65.91
2019-01-24T08:47:28.301Z,65.43
2019-01-24T08:49:55.359Z,65.16
2019-01-24T08:52:22.418Z,64.66
2019-01-24T08:54:49.456Z,64.55
2019-01-24T08:57:16.512Z,64.71
2019-01-24T08:59:43.560Z,64.39
2019-01-24T09:02:10.604Z,64.28
2019-01-24T09:04:37.636Z,64.28
2019-01-24T09:07:04.707Z,64.05
2019-01-24T09:09:31.754Z,63.86
2019-01-24T09:11:58.791Z,62.51
2019-01-24T09:14:25.838Z,62.51
2019-01-24T09:16:52.888Z,62.61
2019-01-24T09:19:19.928Z,62.62
2019-01-24T09:21:46.976Z,62.56
2019-01-24T09:24:14.036Z,62.71
2019-01-24T09:26:41.108Z,62.70
2019-01-24T09:29:08.164Z,62.82
2019-01-24T09:31:35.257Z,62.60
2019-01-24T09:34:02.329Z,62.13
2019-01-24T09:36:29.565Z,62.13
2019-01-24T09:38:56.656Z,61.93
2019-01-24T09:41:23.756Z,61.25
2019-01-24T09:43:50.805Z,61.44
2019-01-24T09:46:17.846Z,61.23
2019-01-24T09:48:44.911Z,60.80
2019-01-24T09:51:11.969Z,60.66
2019-01-24T09:53:39.043Z,60.61
2019-01-24T09:56:06.085Z,60.61
2019-01-24T09:58:33.142Z,60.42
2019-01-24T10:01:00.210Z,60.39
2019-01-24T10:03:27.281Z,60.46
2019-01-24T10:05:54.339Z,60.47
2019-01-24T10:08:21.412Z,60.18
2019-01-24T10:10:48.470Z,60.18
2019-01-24T10:13:15.525Z,60.04
2019-01-24T10:15:42.578Z,60.00
2019-01-24T10:18:09.640Z,59.80
2019-01-24T10:20:36.690Z,59.56
2019-01-24T10:23:04.060Z,59.37
2019-01-24T10:25:38.169Z,59.28
2019-01-24T10:28:05.594Z,59.30
2019-01-24T10:30:32.655Z,59.49
2019-01-24T10:32:59.820Z,59.57
2019-01-24T10:35:26.915Z,59.75
2019-01-24T10:37:54.052Z,59.82
2019-01-24T10:40:23.161Z,59.81
2019-01-24T10:42:50.170Z,59.96
2019-01-24T10:45:17.958Z,59.96
2019-01-24T10:47:45.303Z,59.81
2019-01-24T10:50:13.656Z,59.96
2019-01-24T10:52:40.706Z,59.95
2019-01-24T10:55:13.587Z,60.10
2019-01-24T10:57:38.332Z,60.33
2019-01-24T11:00:09.028Z,60.27
2019-01-24T11:02:36.097Z,60.08
2019-01-24T11:05:03.677Z,59.83
2019-01-24T11:07:30.763Z,59.36
2019-01-24T11:09:57.823Z,59.36
2019-01-24T11:12:24.887Z,58.91
2019-01-24T11:14:51.986Z,59.04
2019-01-24T11:17:18.985Z,59.10
2019-01-24T11:19:46.057Z,58.43
2019-01-24T11:22:13.116Z,57.63
2019-01-24T11:24:40.170Z,56.63
2019-01-24T11:27:07.222Z,56.62
2019-01-24T11:29:34.276Z,56.70
2019-01-24T11:32:01.345Z,56.36
2019-01-24T11:34:28.432Z,56.41
2019-01-24T11:36:57.236Z,56.46
2019-01-24T11:39:24.443Z,55.80
2019-01-24T11:41:51.498Z,55.66
2019-01-24T11:44:18.556Z,55.81
2019-01-24T11:46:45.606Z,55.74
2019-01-24T11:49:12.669Z,55.85
2019-01-24T11:51:39.716Z,55.82
2019-01-24T11:54:06.775Z,55.93
2019-01-24T11:56:33.860Z,55.79
2019-01-24T11:59:00.882Z,56.18
2019-01-24T12:01:27.925Z,56.76
2019-01-24T12:03:55.009Z,57.20
2019-01-24T12:06:23.364Z,57.22
2019-01-24T12:08:50.427Z,57.16
2019-01-24T12:11:17.463Z,57.33
2019-01-24T12:13:44.531Z,57.38
2019-01-24T12:16:11.598Z,56.97
2019-01-24T12:19:17.599Z,57.14
2019-01-24T12:21:44.667Z,57.50
2019-01-24T12:24:11.720Z,57.37
2019-01-24T12:26:38.784Z,56.41
2019-01-24T12:29:05.827Z,56.41
2019-01-24T12:31:32.892Z,56.59
2019-01-24T12:33:59.989Z,56.82
2019-01-24T12:36:27.025Z,56.69
2019-01-24T12:38:54.083Z,57.16
2019-01-24T12:41:21.127Z,57.24
2019-01-24T12:43:48.144Z,57.23
2019-01-24T12:46:15.203Z,56.88
2019-01-24T12:48:42.255Z,56.67
2019-01-24T12:51:09.289Z,56.52
2019-01-24T12:53:36.354Z,56.74
2019-01-24T12:56:03.451Z,56.82
2019-01-24T12:58:30.497Z,56.85
2019-01-24T13:00:57.574Z,57.10
2019-01-24T13:03:24.621Z,57.36
2019-01-24T13:05:51.668Z,57.42
2019-01-24T13:08:18.692Z,57.77
2019-01-24T13:10:45.740Z,57.83
2019-01-24T13:13:12.797Z,57.71
2019-01-24T13:15:39.836Z,57.62
2019-01-24T13:18:06.926Z,57.23
2019-01-24T13:20:33.935Z,57.52
2019-01-24T13:23:00.978Z,57.82
2019-01-24T13:25:30.010Z,58.02
2019-01-24T13:27:57.076Z,58.22
2019-01-24T13:30:26.053Z,57.98
2019-01-24T13:32:53.119Z,58.06
2019-01-24T13:35:20.509Z,57.82
2019-01-24T13:37:47.578Z,57.73
2019-01-24T13:40:16.758Z,60.68
2019-01-24T13:42:43.835Z,61.42
2019-01-24T13:45:12.650Z,59.88
2019-01-24T13:47:39.699Z,58.41
2019-01-24T13:50:08.815Z,57.77
2019-01-24T13:52:35.854Z,57.60
2019-01-24T13:55:03.325Z,57.56
2019-01-24T13:57:30.364Z,57.85
2019-01-24T13:59:57.414Z,58.04
2019-01-24T14:02:24.472Z,57.85
2019-01-24T14:04:51.518Z,57.81
2019-01-24T14:07:18.637Z,57.98
2019-01-24T14:09:45.715Z,58.12
2019-01-24T14:12:12.767Z,57.79
2019-01-24T14:14:39.822Z,57.74
2019-01-24T14:17:06.858Z,57.52
2019-01-24T14:19:33.897Z,57.40
2019-01-24T14:22:00.968Z,56.96
2019-01-24T14:24:28.017Z,57.05
2019-01-24T14:26:55.071Z,57.09
2019-01-24T14:29:22.111Z,56.97
2019-01-24T14:31:49.190Z,57.03
2019-01-24T14:34:16.234Z,57.28
2019-01-24T14:36:43.510Z,57.08
2019-01-24T14:39:10.580Z,57.10
2019-01-24T14:41:37.641Z,57.34
2019-01-24T14:44:04.713Z,57.61
2019-01-24T14:46:31.775Z,57.62
2019-01-24T14:48:58.880Z,57.73
2019-01-24T14:51:25.920Z,57.79
2019-01-24T14:53:52.985Z,57.69
2019-01-24T14:56:20.051Z,57.29
2019-01-24T14:58:47.097Z,57.17
2019-01-24T15:01:20.195Z,56.62
2019-01-24T15:03:47.261Z,57.27
2019-01-24T15:06:14.325Z,57.37
2019-01-24T15:08:41.391Z,57.59
2019-01-24T15:11:08.454Z,57.75
2019-01-24T15:13:35.490Z,57.97
2019-01-24T15:16:02.966Z,58.07
2019-01-24T15:18:30.032Z,58.46
2019-01-24T15:20:57.093Z,58.77
2019-01-24T15:23:24.144Z,58.66
2019-01-24T15:25:51.204Z,59.02
2019-01-24T15:28:18.273Z,59.36
2019-01-24T15:30:45.377Z,59.63
2019-01-24T15:33:12.442Z,59.67
2019-01-24T15:35:39.516Z,59.67
2019-01-24T15:38:06.618Z,59.54
2019-01-24T15:40:33.695Z,59.54
2019-01-24T15:43:00.938Z,59.75
2019-01-24T15:45:28.105Z,60.36
2019-01-24T15:47:55.435Z,60.36
2019-01-24T15:50:22.837Z,60.53
2019-01-24T15:52:49.945Z,60.53
2019-01-24T15:55:17.204Z,60.88
2019-01-24T15:57:44.413Z,60.88
2019-01-24T16:00:16.946Z,60.79
2019-01-24T16:02:44.002Z,61.20
2019-01-24T16:05:11.095Z,61.20
2019-01-24T16:07:38.169Z,61.14
2019-01-24T16:10:06.830Z,61.66
2019-01-24T16:12:33.894Z,61.66
2019-01-24T16:15:01.003Z,66.97
2019-01-24T16:17:28.103Z,66.79
2019-01-24T16:19:55.156Z,65.83
2019-01-24T16:22:22.235Z,62.88
2019-01-24T16:24:49.298Z,61.48
2019-01-24T16:27:16.350Z,59.81
2019-01-24T16:29:43.433Z,57.92
2019-01-24T16:32:10.557Z,56.43
2019-01-24T16:34:37.675Z,56.16
2019-01-24T16:37:04.744Z,55.19
2019-01-24T16:39:31.828Z,55.26
2019-01-24T16:41:58.900Z,54.29
2019-01-24T16:44:25.987Z,54.69
2019-01-24T16:46:53.118Z,54.61
2019-01-24T16:49:20.343Z,54.13
2019-01-24T16:51:47.460Z,53.73
2019-01-24T16:54:14.529Z,53.78
2019-01-24T16:56:41.926Z,53.07
2019-01-24T16:59:09.013Z,53.37
2019-01-24T17:01:36.079Z,54.09
2019-01-24T17:04:03.534Z,54.80
2019-01-24T17:06:30.673Z,55.66
2019-01-24T17:08:57.789Z,56.19
2019-01-24T17:11:24.935Z,56.76
2019-01-24T17:13:52.048Z,57.24
2019-01-24T17:16:21.205Z,57.57
2019-01-24T17:18:48.305Z,58.07
2019-01-24T17:21:15.460Z,58.48
2019-01-24T17:23:42.565Z,58.87
2019-01-24T17:26:09.699Z,59.41
2019-01-24T17:28:36.804Z,59.65
2019-01-24T17:31:04.251Z,60.06
2019-01-24T17:33:32.796Z,60.42
2019-01-24T17:35:59.938Z,60.43
2019-01-24T17:38:27.074Z,60.85
2019-01-24T17:40:54.423Z,61.05
2019-01-24T17:43:21.557Z,61.13
2019-01-24T17:45:48.705Z,61.22
2019-01-24T17:48:16.162Z,61.69
2019-01-24T17:50:43.603Z,61.76
2019-01-24T17:53:10.752Z,61.76
2019-01-24T17:55:40.506Z,62.01
2019-01-24T17:58:09.758Z,62.14
2019-01-24T18:00:39.379Z,62.38
2019-01-24T18:03:06.525Z,62.83
2019-01-24T18:05:35.146Z,63.03
2019-01-24T18:08:02.259Z,63.24
2019-01-24T18:10:29.745Z,63.31
2019-01-24T18:12:57.165Z,63.27
2019-01-24T18:15:30.393Z,63.24
2019-01-24T18:17:57.528Z,63.46
2019-01-24T18:20:29.466Z,63.47
2019-01-24T18:22:56.662Z,63.46
2019-01-24T18:25:23.862Z,63.50
2019-01-24T18:27:51.031Z,63.54
2019-01-24T18:30:21.477Z,63.54
2019-01-24T18:32:49.006Z,63.55
2019-01-24T18:35:16.517Z,63.58
2019-01-24T18:37:44.180Z,63.71
2019-01-24T18:40:14.909Z,63.83
2019-01-24T18:42:45.046Z,63.73
2019-01-24T18:45:15.134Z,63.73
2019-01-24T18:47:42.402Z,63.72
2019-01-24T18:50:14.189Z,63.71
2019-01-24T18:52:41.718Z,63.79
2019-01-24T18:55:17.597Z,63.70
2019-01-24T18:57:47.876Z,63.88
2019-01-24T19:00:20.659Z,64.01
2019-01-24T19:02:48.811Z,64.15
2019-01-24T19:05:16.405Z,64.07
2019-01-24T19:07:46.298Z,64.12
2019-01-24T19:10:14.207Z,64.12
2019-01-24T19:12:41.602Z,64.25
2019-01-24T19:15:13.629Z,64.39
2019-01-24T19:17:41.235Z,65.14
2019-01-24T19:20:09.941Z,66.16
2019-01-24T19:22:37.607Z,65.47
2019-01-24T19:25:06.502Z,65.31
2019-01-24T19:27:33.888Z,65.11
2019-01-24T19:30:02.668Z,64.82
2019-01-24T19:32:30.049Z,64.91
2019-01-24T19:35:06.408Z,64.97
2019-01-24T19:37:34.632Z,64.94
2019-01-24T19:40:04.860Z,64.42
2019-01-24T19:42:32.670Z,64.52
2019-01-24T19:45:01.477Z,64.77
2019-01-24T19:47:29.096Z,64.84
2019-01-24T19:49:57.113Z,64.93
2019-01-24T19:52:29.296Z,64.92
2019-01-24T19:54:56.770Z,65.18
2019-01-24T19:57:24.903Z,65.20
2019-01-24T19:59:52.532Z,65.13
2019-01-24T20:02:21.827Z,65.23
2019-01-24T20:04:49.370Z,64.99
2019-01-24T20:07:18.657Z,64.99
2019-01-24T20:09:50.043Z,65.19
2019-01-24T20:12:21.910Z,65.18
2019-01-24T20:14:49.894Z,65.18
2019-01-24T20:17:21.591Z,65.22
2019-01-24T20:19:51.259Z,65.38
2019-01-24T20:22:18.642Z,65.59
2019-01-24T20:24:46.325Z,66.11
2019-01-24T20:27:16.310Z,66.87
2019-01-24T20:29:43.821Z,66.79
2019-01-24T20:32:13.478Z,66.96
2019-01-24T20:34:41.414Z,66.68
2019-01-24T20:37:11.686Z,66.57
2019-01-24T20:39:40.292Z,66.09
2019-01-24T20:42:07.840Z,66.12
2019-01-24T20:44:35.083Z,65.98
2019-01-24T20:47:05.031Z,65.92
2019-01-24T20:49:32.652Z,66.16
2019-01-24T20:52:03.268Z,66.26
2019-01-24T20:54:32.840Z,66.22
2019-01-24T20:57:00.613Z,66.20
2019-01-24T20:59:27.808Z,66.32
2019-01-24T21:01:55.299Z,66.49
2019-01-24T21:04:22.549Z,66.75
2019-01-24T21:06:49.681Z,66.68
2019-01-24T21:09:17.101Z,66.60
2019-01-24T21:11:44.247Z,66.53
2019-01-24T21:14:12.959Z,66.44
2019-01-24T21:16:42.009Z,66.62
2019-01-24T21:19:09.158Z,66.62
2019-01-24T21:21:36.303Z,66.50
2019-01-24T21:24:03.754Z,66.57
2019-01-24T21:26:30.894Z,66.60
2019-01-24T21:28:58.002Z,66.38
2019-01-24T21:31:25.111Z,66.40
2019-01-24T21:33:52.583Z,66.35
2019-01-24T21:36:22.535Z,66.40
2019-01-24T21:38:49.698Z,66.53
2019-01-24T21:41:16.858Z,66.69
2019-01-24T21:43:43.995Z,66.90
2019-01-24T21:46:11.113Z,67.16
2019-01-24T21:48:38.208Z,67.50
2019-01-24T21:51:11.198Z,67.65
2019-01-24T21:53:34.333Z,67.75
2019-01-24T21:56:01.420Z,67.80
2019-01-24T21:58:28.530Z,67.98
2019-01-24T22:00:55.640Z,68.17
2019-01-24T22:03:22.741Z,68.27
2019-01-24T22:05:49.860Z,68.55
2019-01-24T22:08:16.957Z,68.73
2019-01-24T22:10:44.037Z,69.01
2019-01-24T22:13:11.159Z,69.22
2019-01-24T22:15:38.251Z,69.38
2019-01-24T22:18:05.620Z,69.66
2019-01-24T22:20:32.711Z,69.67
2019-01-24T22:22:59.770Z,70.01
2019-01-24T22:25:29.104Z,70.17
2019-01-24T22:27:56.188Z,70.34
2019-01-24T22:30:27.620Z,70.46
2019-01-24T22:32:54.790Z,70.65
2019-01-24T22:35:21.853Z,70.75
2019-01-24T22:37:48.910Z,70.84
2019-01-24T22:40:16.195Z,70.95
2019-01-24T22:42:43.252Z,71.05
2019-01-24T22:45:16.275Z,71.22
2019-01-24T22:47:43.315Z,71.19
2019-01-24T22:50:11.393Z,71.21
2019-01-24T22:52:38.442Z,71.14
2019-01-24T22:55:05.716Z,71.04
2019-01-24T22:57:32.739Z,71.16
2019-01-24T22:59:59.791Z,71.22
2019-01-24T23:02:29.229Z,71.19
2019-01-24T23:04:56.252Z,71.12
2019-01-24T23:07:23.316Z,71.14
2019-01-24T23:09:50.372Z,71.27
2019-01-24T23:12:17.414Z,71.18
2019-01-24T23:14:44.446Z,71.24
2019-01-24T23:17:11.478Z,71.26
2019-01-24T23:19:38.515Z,71.20
2019-01-24T23:22:05.571Z,71.34
2019-01-24T23:24:32.645Z,71.09
2019-01-24T23:26:59.675Z,70.99
2019-01-24T23:29:26.763Z,70.84
2019-01-24T23:31:53.842Z,70.70
2019-01-24T23:34:20.917Z,70.61
2019-01-24T23:36:47.920Z,70.31
2019-01-24T23:39:14.943Z,70.02
2019-01-24T23:41:41.955Z,69.90
2019-01-24T23:44:08.952Z,69.72
2019-01-24T23:46:35.959Z,69.55
2019-01-24T23:49:02.992Z,69.50
2019-01-24T23:51:30.029Z,69.43
2019-01-24T23:53:57.109Z,69.57
2019-01-24T23:56:24.112Z,69.31
2019-01-24T23:58:51.101Z,69.35
